createdAt,value
2022-08-07T00:01:43.781Z,14.28
2022-08-07T00:04:09.324Z,14.24
2022-08-07T00:06:37.344Z,14.24
2022-08-07T00:09:22.732Z,14.20
2022-08-07T00:11:55.959Z,14.18
2022-08-07T00:14:30.963Z,14.14
2022-08-07T00:17:02.632Z,14.12
2022-08-07T00:19:59.955Z,14.11
2022-08-07T00:22:24.690Z,14.06
2022-08-07T00:25:16.617Z,14.06
2022-08-07T00:27:53.749Z,14.07
2022-08-07T00:30:27.426Z,14.05
2022-08-07T00:32:58.930Z,14.00
2022-08-07T00:35:29.957Z,13.94
2022-08-07T00:38:00.431Z,13.90
2022-08-07T00:40:36.370Z,13.86
2022-08-07T00:44:01.433Z,13.82
2022-08-07T00:46:02.173Z,13.75
2022-08-07T00:48:32.363Z,13.72
2022-08-07T00:51:02.873Z,13.71
2022-08-07T00:53:38.498Z,13.67
2022-08-07T00:56:13.790Z,13.61
2022-08-07T00:58:43.925Z,13.59
2022-08-07T01:01:16.919Z,13.54
2022-08-07T01:03:54.696Z,13.54
2022-08-07T01:06:25.380Z,13.52
2022-08-07T01:08:55.533Z,13.51
2022-08-07T01:12:27.909Z,13.49
2022-08-07T01:14:12.705Z,13.47
2022-08-07T01:16:47.239Z,13.43
2022-08-07T01:19:19.784Z,13.43
2022-08-07T01:21:55.382Z,13.38
2022-08-07T01:24:30.652Z,13.32
2022-08-07T01:27:01.315Z,13.30
2022-08-07T01:29:33.780Z,13.28
2022-08-07T01:32:05.515Z,13.24
2022-08-07T01:34:44.533Z,13.21
2022-08-07T01:37:17.381Z,13.17
2022-08-07T01:39:48.804Z,13.13
2022-08-07T01:42:38.686Z,13.11
2022-08-07T01:45:18.196Z,13.07
2022-08-07T01:48:17.626Z,13.04
2022-08-07T01:50:47.145Z,13.01
2022-08-07T01:54:00.706Z,13.01
2022-08-07T01:56:23.942Z,13.00
2022-08-07T01:59:19.554Z,12.99
2022-08-07T02:02:02.762Z,12.98
2022-08-07T02:04:56.593Z,12.94
2022-08-07T02:07:50.237Z,12.91
2022-08-07T02:10:27.807Z,12.87
2022-08-07T02:13:01.693Z,12.85
2022-08-07T02:15:40.011Z,12.82
2022-08-07T02:18:13.146Z,12.79
2022-08-07T02:20:48.684Z,12.76
2022-08-07T02:23:23.901Z,12.70
2022-08-07T02:26:31.542Z,12.68
2022-08-07T02:28:47.310Z,12.65
2022-08-07T02:31:28.220Z,12.64
2022-08-07T02:34:03.017Z,12.61
2022-08-07T02:36:36.934Z,12.61
2022-08-07T02:39:17.518Z,12.61
2022-08-07T02:42:03.402Z,12.58
2022-08-07T02:44:48.067Z,12.52
2022-08-07T02:47:19.852Z,12.50
2022-08-07T02:49:58.932Z,12.48
2022-08-07T02:52:41.392Z,12.46
2022-08-07T02:56:03.915Z,12.38
2022-08-07T02:58:23.349Z,12.33
2022-08-07T03:00:59.366Z,12.29
2022-08-07T03:03:48.955Z,12.27
2022-08-07T03:06:25.869Z,12.27
2022-08-07T03:09:11.306Z,12.29
2022-08-07T03:11:51.601Z,12.27
2022-08-07T03:14:22.651Z,12.27
2022-08-07T03:16:52.354Z,12.26
2022-08-07T03:19:20.929Z,12.24
2022-08-07T03:21:51.310Z,12.20
2022-08-07T03:24:26.968Z,12.17
2022-08-07T03:27:03.629Z,12.14
2022-08-07T03:29:52.399Z,12.13
2022-08-07T03:32:33.338Z,12.11
2022-08-07T03:35:17.639Z,12.10
2022-08-07T03:37:56.475Z,12.07
2022-08-07T03:40:31.077Z,12.08
2022-08-07T03:43:10.086Z,12.04
2022-08-07T03:45:47.662Z,12.02
2022-08-07T03:48:18.415Z,11.99
2022-08-07T03:50:55.883Z,11.96
2022-08-07T03:54:00.724Z,11.94
2022-08-07T03:56:33.131Z,11.91
2022-08-07T03:59:09.803Z,11.88
2022-08-07T04:01:46.749Z,11.86
2022-08-07T04:04:19.120Z,11.83
2022-08-07T04:06:53.335Z,11.81
2022-08-07T04:09:24.412Z,11.81
2022-08-07T04:12:25.887Z,11.79
2022-08-07T04:14:48.969Z,11.76
2022-08-07T04:17:21.123Z,11.76
2022-08-07T04:19:51.771Z,11.75
2022-08-07T04:22:29.659Z,11.74
2022-08-07T04:25:08.916Z,11.74
2022-08-07T04:27:44.317Z,11.76
2022-08-07T04:30:21.719Z,11.77
2022-08-07T04:33:15.449Z,11.78
2022-08-07T04:35:51.055Z,11.76
2022-08-07T04:38:23.026Z,11.76
2022-08-07T04:40:52.796Z,11.79
2022-08-07T04:44:12.215Z,11.86
2022-08-07T04:46:59.266Z,11.97
2022-08-07T04:50:03.653Z,12.13
2022-08-07T04:53:03.771Z,12.24
2022-08-07T04:58:14.633Z,12.33
2022-08-07T05:00:12.729Z,12.33
2022-08-07T05:02:43.404Z,12.38
2022-08-07T05:05:52.765Z,12.40
2022-08-07T05:09:18.862Z,12.40
2022-08-07T05:12:10.803Z,12.39
2022-08-07T05:14:56.261Z,12.37
2022-08-07T05:17:52.123Z,12.41
2022-08-07T05:20:39.913Z,12.43
2022-08-07T05:23:50.138Z,12.44
2022-08-07T05:26:25.938Z,12.43
2022-08-07T05:29:04.901Z,12.50
2022-08-07T05:31:40.154Z,12.55
2022-08-07T05:34:19.912Z,12.61
2022-08-07T05:36:55.934Z,12.65
2022-08-07T05:40:14.302Z,12.72
2022-08-07T05:42:37.013Z,12.79
2022-08-07T05:45:25.930Z,12.87
2022-08-07T05:48:05.736Z,12.96
2022-08-07T05:50:43.309Z,13.04
2022-08-07T05:54:09.429Z,13.14
2022-08-07T05:56:06.111Z,13.23
2022-08-07T05:58:41.227Z,13.32
2022-08-07T06:01:20.838Z,13.39
2022-08-07T06:03:58.573Z,13.47
2022-08-07T06:06:32.566Z,13.59
2022-08-07T06:09:05.006Z,13.69
2022-08-07T06:11:36.020Z,13.74
2022-08-07T06:14:13.379Z,13.82
2022-08-07T06:16:56.210Z,13.92
2022-08-07T06:19:52.353Z,14.03
2022-08-07T06:22:23.779Z,14.15
2022-08-07T06:25:01.784Z,14.22
2022-08-07T06:27:43.937Z,14.31
2022-08-07T06:30:24.151Z,14.45
2022-08-07T06:33:04.870Z,14.53
2022-08-07T06:35:45.318Z,14.64
2022-08-07T06:38:20.205Z,14.74
2022-08-07T06:40:56.105Z,14.89
2022-08-07T06:43:39.761Z,14.96
2022-08-07T06:46:15.472Z,15.04
2022-08-07T06:49:04.389Z,15.14
2022-08-07T06:51:49.535Z,15.23
2022-08-07T06:55:32.411Z,15.34
2022-08-07T06:57:13.621Z,15.47
2022-08-07T07:00:12.995Z,15.58
2022-08-07T07:02:53.391Z,15.75
2022-08-07T07:06:02.440Z,15.88
2022-08-07T07:08:18.641Z,16.02
2022-08-07T07:10:56.652Z,16.14
2022-08-07T07:13:58.357Z,16.30
2022-08-07T07:16:39.053Z,16.43
2022-08-07T07:19:57.876Z,16.52
2022-08-07T07:22:37.024Z,16.64
2022-08-07T07:26:30.660Z,16.79
2022-08-07T07:28:42.036Z,16.91
2022-08-07T07:31:26.002Z,17.03
2022-08-07T07:34:08.373Z,17.13
2022-08-07T07:36:41.844Z,17.24
2022-08-07T07:39:17.829Z,17.35
2022-08-07T07:42:12.865Z,17.43
2022-08-07T07:44:45.190Z,17.55
2022-08-07T07:47:23.097Z,17.66
2022-08-07T07:50:33.100Z,17.81
2022-08-07T07:52:46.929Z,17.91
2022-08-07T07:55:18.430Z,17.99
2022-08-07T07:57:54.019Z,18.01
2022-08-07T08:00:29.696Z,18.06
2022-08-07T08:04:06.090Z,18.19
2022-08-07T08:06:06.932Z,18.37
2022-08-07T08:08:43.027Z,18.54
2022-08-07T08:11:16.621Z,18.71
2022-08-07T08:13:59.708Z,18.80
2022-08-07T08:16:50.268Z,18.89
2022-08-07T08:20:18.311Z,18.95
2022-08-07T08:22:34.278Z,19.07
2022-08-07T08:25:27.041Z,19.14
2022-08-07T08:28:37.257Z,19.23
2022-08-07T08:31:15.798Z,19.29
2022-08-07T08:33:49.283Z,19.36
2022-08-07T08:36:25.468Z,19.50
2022-08-07T08:39:01.901Z,19.79
2022-08-07T08:41:59.747Z,20.16
2022-08-07T08:45:58.934Z,20.75
2022-08-07T08:49:07.172Z,21.43
2022-08-07T08:52:13.052Z,21.92
2022-08-07T08:55:21.200Z,22.49
2022-08-07T08:58:28.725Z,23.06
2022-08-07T09:01:29.561Z,23.42
2022-08-07T09:04:25.733Z,23.79
2022-08-07T09:07:14.220Z,24.12
2022-08-07T09:10:14.662Z,24.40
2022-08-07T09:13:36.979Z,24.68
2022-08-07T09:16:30.773Z,24.93
2022-08-07T09:19:51.589Z,25.17
2022-08-07T09:24:28.543Z,25.54
2022-08-07T09:25:58.632Z,25.79
2022-08-07T09:30:02.368Z,25.93
2022-08-07T09:32:17.192Z,26.27
2022-08-07T09:36:04.846Z,26.49
2022-08-07T09:38:12.014Z,26.78
2022-08-07T09:41:36.469Z,27.15
2022-08-07T09:47:27.512Z,27.29
2022-08-07T09:48:19.562Z,27.50
2022-08-07T09:52:10.949Z,27.75
2022-08-07T09:54:34.294Z,27.81
2022-08-07T09:57:32.985Z,27.72
2022-08-07T10:00:16.226Z,27.65
2022-08-07T10:04:06.293Z,27.87
2022-08-07T10:07:24.575Z,27.90
2022-08-07T10:11:00.188Z,27.01
2022-08-07T10:14:02.348Z,26.17
2022-08-07T10:18:00.785Z,25.75
2022-08-07T10:21:19.515Z,25.92
2022-08-07T10:24:52.125Z,26.09
2022-08-07T10:27:59.257Z,25.70
2022-08-07T10:31:11.016Z,25.86
2022-08-07T10:34:18.158Z,26.24
2022-08-07T10:37:13.921Z,26.84
2022-08-07T10:40:12.730Z,27.41
2022-08-07T10:43:07.241Z,27.83
2022-08-07T10:45:57.648Z,28.05
2022-08-07T10:49:02.382Z,28.02
2022-08-07T10:52:01.653Z,28.08
2022-08-07T10:55:36.985Z,28.57
2022-08-07T10:58:36.772Z,29.00
2022-08-07T11:01:35.873Z,29.25
2022-08-07T11:04:59.587Z,29.58
2022-08-07T11:08:18.374Z,29.86
2022-08-07T11:11:29.630Z,30.08
2022-08-07T11:14:57.003Z,30.29
2022-08-07T11:17:56.598Z,30.44
2022-08-07T11:21:07.747Z,30.46
2022-08-07T11:24:10.145Z,29.73
2022-08-07T11:28:01.286Z,29.56
2022-08-07T11:31:00.463Z,29.62
2022-08-07T11:34:06.458Z,29.94
2022-08-07T11:37:57.399Z,29.85
2022-08-07T11:40:51.682Z,29.55
2022-08-07T11:43:54.556Z,28.95
2022-08-07T11:47:56.450Z,28.42
2022-08-07T11:51:41.588Z,27.87
2022-08-07T11:54:37.362Z,27.47
2022-08-07T11:57:59.665Z,27.00
2022-08-07T12:01:05.258Z,26.58
2022-08-07T12:04:59.474Z,26.17
2022-08-07T12:07:53.743Z,25.95
2022-08-07T12:11:20.811Z,25.85
2022-08-07T12:13:58.142Z,25.69
2022-08-07T12:16:46.744Z,25.58
2022-08-07T12:20:09.475Z,25.50
2022-08-07T12:24:05.982Z,25.47
2022-08-07T12:26:49.162Z,25.52
2022-08-07T12:29:38.234Z,25.54
2022-08-07T12:32:22.106Z,25.32
2022-08-07T12:34:56.330Z,25.09
2022-08-07T12:38:09.085Z,24.92
2022-08-07T12:40:46.388Z,24.84
2022-08-07T12:44:02.038Z,24.98
2022-08-07T12:46:57.670Z,25.09
2022-08-07T12:50:38.568Z,25.11
2022-08-07T12:54:23.762Z,25.03
2022-08-07T12:56:51.504Z,25.05
2022-08-07T12:59:53.996Z,25.05
2022-08-07T13:03:27.132Z,25.01
2022-08-07T13:07:01.034Z,25.20
2022-08-07T13:10:28.328Z,25.28
2022-08-07T13:13:48.864Z,25.25
2022-08-07T13:16:52.854Z,25.23
2022-08-07T13:19:52.780Z,25.22
2022-08-07T13:22:56.294Z,25.14
2022-08-07T13:26:00.832Z,25.16
2022-08-07T13:28:50.011Z,25.18
2022-08-07T13:31:54.826Z,25.24
2022-08-07T13:34:57.599Z,25.49
2022-08-07T13:38:02.492Z,25.67
2022-08-07T13:40:46.996Z,25.94
2022-08-07T13:43:21.627Z,26.65
2022-08-07T13:46:12.156Z,27.51
2022-08-07T13:48:59.372Z,28.19
2022-08-07T13:52:05.616Z,28.75
2022-08-07T13:54:23.601Z,29.38
2022-08-07T13:56:59.705Z,29.93
2022-08-07T13:59:34.375Z,30.30
2022-08-07T14:02:15.186Z,30.57
2022-08-07T14:04:54.428Z,30.84
2022-08-07T14:07:28.835Z,31.08
2022-08-07T14:10:16.344Z,31.38
2022-08-07T14:13:02.802Z,31.38
2022-08-07T14:15:51.899Z,31.57
2022-08-07T14:18:56.961Z,31.79
2022-08-07T14:22:02.445Z,32.11
2022-08-07T14:24:48.342Z,32.40
2022-08-07T14:28:12.426Z,32.48
2022-08-07T14:30:16.276Z,32.41
2022-08-07T14:33:04.614Z,32.34
2022-08-07T14:35:45.307Z,32.26
2022-08-07T14:38:30.905Z,32.34
2022-08-07T14:41:14.940Z,32.27
2022-08-07T14:43:55.712Z,31.96
2022-08-07T14:46:32.009Z,31.58
2022-08-07T14:49:17.294Z,31.49
2022-08-07T14:52:03.861Z,31.61
2022-08-07T15:05:20.644Z,30.65
2022-08-07T15:10:58.640Z,30.55
2022-08-07T15:13:36.723Z,31.06
2022-08-07T15:16:14.611Z,31.42
2022-08-07T15:18:55.059Z,31.68
2022-08-07T15:21:44.345Z,31.66
2022-08-07T15:27:34.276Z,31.67
2022-08-07T15:30:16.400Z,31.58
2022-08-07T15:33:01.211Z,31.46
2022-08-07T15:36:00.346Z,31.46
2022-08-07T15:42:44.581Z,31.62
2022-08-07T15:44:17.260Z,31.66
2022-08-07T15:46:52.670Z,31.49
2022-08-07T15:50:06.460Z,30.71
2022-08-07T15:52:30.603Z,30.61
2022-08-07T15:55:04.479Z,30.85
2022-08-07T15:57:48.860Z,30.91
2022-08-07T16:00:31.989Z,30.46
2022-08-07T16:03:46.649Z,30.04
2022-08-07T16:06:12.716Z,29.53
2022-08-07T16:08:47.460Z,29.05
2022-08-07T16:11:46.923Z,28.49
2022-08-07T16:15:54.898Z,27.72
2022-08-07T16:19:03.039Z,27.11
2022-08-07T16:22:36.095Z,26.75
2022-08-07T16:25:52.549Z,26.51
2022-08-07T16:30:06.825Z,26.18
2022-08-07T16:32:00.691Z,25.97
2022-08-07T16:34:55.420Z,25.65
2022-08-07T16:38:03.754Z,25.38
2022-08-07T16:41:22.253Z,25.28
2022-08-07T16:44:40.350Z,25.18
2022-08-07T16:47:51.593Z,25.14
2022-08-07T16:51:21.559Z,25.12
2022-08-07T16:54:23.202Z,24.96
2022-08-07T16:58:00.999Z,24.83
2022-08-07T17:00:29.585Z,24.69
2022-08-07T17:04:00.012Z,24.48
2022-08-07T17:07:08.632Z,24.44
2022-08-07T17:10:06.347Z,24.31
2022-08-07T17:13:16.998Z,24.09
2022-08-07T17:15:56.972Z,23.88
2022-08-07T17:18:40.622Z,23.75
2022-08-07T17:21:52.285Z,23.69
2022-08-07T17:25:10.177Z,23.65
2022-08-07T17:28:09.600Z,23.55
2022-08-07T17:30:58.136Z,23.48
2022-08-07T17:34:09.924Z,23.47
2022-08-07T17:36:57.610Z,23.57
2022-08-07T17:39:57.677Z,23.50
2022-08-07T17:42:59.460Z,23.50
2022-08-07T17:45:42.208Z,23.39
2022-08-07T17:48:31.237Z,23.29
2022-08-07T17:51:06.270Z,23.19
2022-08-07T17:54:06.535Z,23.14
2022-08-07T17:57:18.908Z,23.11
2022-08-07T18:00:11.263Z,23.08
2022-08-07T18:02:58.669Z,23.07
2022-08-07T18:06:03.280Z,23.05
2022-08-07T18:09:02.065Z,22.99
2022-08-07T18:12:07.902Z,22.96
2022-08-07T18:14:55.788Z,22.81
2022-08-07T18:18:46.178Z,22.69
2022-08-07T18:21:58.336Z,22.65
2022-08-07T18:24:34.443Z,22.64
2022-08-07T18:28:34.141Z,22.61
2022-08-07T18:31:11.235Z,22.49
2022-08-07T18:34:53.423Z,22.35
2022-08-07T18:38:55.946Z,22.20
2022-08-07T18:42:13.049Z,22.12
2022-08-07T18:45:39.758Z,22.00
2022-08-07T18:50:30.174Z,21.87
2022-08-07T18:52:35.267Z,21.82
2022-08-07T18:55:40.567Z,21.72
2022-08-07T18:58:38.310Z,21.59
2022-08-07T19:02:18.036Z,21.47
2022-08-07T19:05:15.575Z,21.35
2022-08-07T19:08:18.673Z,21.19
2022-08-07T19:11:15.488Z,21.07
2022-08-07T19:14:36.485Z,20.91
2022-08-07T19:18:00.863Z,20.82
2022-08-07T19:20:29.595Z,20.71
2022-08-07T19:23:59.134Z,20.59
2022-08-07T19:26:29.495Z,20.50
2022-08-07T19:30:55.946Z,20.42
2022-08-07T19:32:18.046Z,20.32
2022-08-07T19:35:01.446Z,20.23
2022-08-07T19:37:55.486Z,20.14
2022-08-07T19:40:30.437Z,20.06
2022-08-07T19:42:59.197Z,19.95
2022-08-07T19:46:01.207Z,19.88
2022-08-07T19:48:29.851Z,19.80
2022-08-07T19:51:19.944Z,19.73
2022-08-07T19:54:31.809Z,19.66
2022-08-07T19:57:51.305Z,19.60
2022-08-07T19:59:42.154Z,19.54
2022-08-07T20:02:29.034Z,19.46
2022-08-07T20:05:00.512Z,19.39
2022-08-07T20:07:47.257Z,19.33
2022-08-07T20:10:35.525Z,19.26
2022-08-07T20:13:31.935Z,19.16
2022-08-07T20:16:04.491Z,19.12
2022-08-07T20:18:34.865Z,19.05
2022-08-07T20:21:14.359Z,18.98
2022-08-07T20:24:00.893Z,18.90
2022-08-07T20:26:44.927Z,18.82
2022-08-07T20:29:48.375Z,18.75
2022-08-07T20:32:11.225Z,18.67
2022-08-07T20:34:51.408Z,18.59
2022-08-07T20:37:33.929Z,18.56
2022-08-07T20:40:33.173Z,18.50
2022-08-07T20:43:02.111Z,18.43
2022-08-07T20:46:27.530Z,18.39
2022-08-07T20:48:30.349Z,18.35
2022-08-07T20:51:09.282Z,18.28
2022-08-07T20:54:04.580Z,18.22
2022-08-07T20:56:41.132Z,18.15
2022-08-07T21:00:05.519Z,18.09
2022-08-07T21:02:38.414Z,18.01
2022-08-07T21:05:25.562Z,17.95
2022-08-07T21:08:29.314Z,17.87
2022-08-07T21:11:14.615Z,17.80
2022-08-07T21:14:31.775Z,17.77
2022-08-07T21:18:01.015Z,17.72
2022-08-07T21:19:51.659Z,17.64
2022-08-07T21:22:39.023Z,17.59
2022-08-07T21:25:22.830Z,17.57
2022-08-07T21:28:53.557Z,17.50
2022-08-07T21:32:47.484Z,17.45
2022-08-07T21:35:15.167Z,17.38
2022-08-07T21:38:09.034Z,17.36
2022-08-07T21:41:00.083Z,17.32
2022-08-07T21:43:57.109Z,17.26
2022-08-07T21:46:55.340Z,17.20
2022-08-07T21:50:01.057Z,17.14
2022-08-07T21:53:08.519Z,17.07
2022-08-07T21:56:36.055Z,16.99
2022-08-07T22:00:04.924Z,16.95
2022-08-07T22:03:16.740Z,16.88
2022-08-07T22:06:00.498Z,16.84
2022-08-07T22:08:42.554Z,16.80
2022-08-07T22:11:17.014Z,16.78
2022-08-07T22:13:55.201Z,16.73
2022-08-07T22:16:58.267Z,16.72
2022-08-07T22:20:01.230Z,16.65
2022-08-07T22:22:48.471Z,16.58
2022-08-07T22:26:11.644Z,16.54
2022-08-07T22:29:08.744Z,16.52
2022-08-07T22:31:59.984Z,16.48
2022-08-07T22:34:54.331Z,16.44
2022-08-07T22:38:13.421Z,16.39
2022-08-07T22:41:20.854Z,16.32
2022-08-07T22:44:08.320Z,16.29
2022-08-07T22:47:23.145Z,16.25
2022-08-07T22:50:41.274Z,16.20
2022-08-07T22:54:06.562Z,16.13
2022-08-07T22:57:16.812Z,16.10
2022-08-07T23:00:14.206Z,16.06
2022-08-07T23:03:29.868Z,15.99
2022-08-07T23:06:53.322Z,15.95
2022-08-07T23:10:05.914Z,15.91
2022-08-07T23:13:19.418Z,15.84
2022-08-07T23:16:48.333Z,15.79
2022-08-07T23:19:52.076Z,15.73
2022-08-07T23:22:58.172Z,15.70
2022-08-07T23:26:18.298Z,15.64
2022-08-07T23:29:43.679Z,15.63
2022-08-07T23:34:35.102Z,15.62
2022-08-07T23:37:19.877Z,15.59
2022-08-07T23:40:23.905Z,15.55
2022-08-07T23:43:22.901Z,15.54
2022-08-07T23:47:00.014Z,15.54
2022-08-07T23:50:11.871Z,15.49
2022-08-07T23:53:21.282Z,15.48
2022-08-07T23:56:31.342Z,15.48
